Time,TemperatureF,DewpointF,PressureIn,WindDirection,WindDirectionDegrees,WindSpeedMPH,WindSpeedGustMPH,Humidity,HourlyPrecipIn,Conditions,Clouds,dailyrainin,SoftwareType,DateUTC
2013-01-17 00:00:00,32.4,31.4,29.79,ENE,68,0.0,0.0,96,0.00,,---,0.00,VWS V14.00,2013-01-17 05:00:00,
2013-01-17 00:01:00,32.4,31.4,29.79,ENE,68,0.0,0.0,96,0.00,,---,0.00,VWS V14.00,2013-01-17 05:01:00,
2013-01-17 00:06:00,32.4,31.4,29.79,ENE,68,0.0,0.0,96,0.00,,---,0.00,VWS V14.00,2013-01-17 05:06:00,
2013-01-17 00:11:00,32.4,31.4,29.79,ENE,68,0.0,0.0,96,0.00,,---,0.00,VWS V14.00,2013-01-17 05:11:00,
2013-01-17 00:16:00,32.4,31.4,29.79,ENE,68,0.0,0.0,96,0.00,,---,0.00,VWS V14.00,2013-01-17 05:16:00,
2013-01-17 00:21:00,32.4,31.4,29.79,ENE,68,0.0,0.0,96,0.00,,---,0.00,VWS V14.00,2013-01-17 05:21:00,
2013-01-17 00:26:00,32.4,31.4,29.82,ENE,68,0.0,0.0,96,0.00,,---,0.00,VWS V14.00,2013-01-17 05:26:00,
2013-01-17 00:31:00,32.4,31.4,29.82,ENE,68,0.0,0.0,96,0.00,,---,0.00,VWS V14.00,2013-01-17 05:31:00,
2013-01-17 00:36:00,32.4,31.4,29.82,ENE,68,0.0,0.0,96,0.00,,---,0.00,VWS V14.00,2013-01-17 05:36:00,
2013-01-17 00:41:00,32.4,31.4,29.82,ENE,68,0.0,0.0,96,0.00,,---,0.00,VWS V14.00,2013-01-17 05:41:00,
2013-01-17 00:46:00,32.4,31.4,29.82,ENE,68,0.0,0.0,96,0.00,,---,0.00,VWS V14.00,2013-01-17 05:46:00,
2013-01-17 00:51:00,32.4,31.4,29.82,ENE,68,0.0,0.0,96,0.00,,---,0.00,VWS V14.00,2013-01-17 05:51:00,
2013-01-17 00:56:00,32.4,31.4,29.82,ENE,68,0.0,0.0,96,0.00,,---,0.00,VWS V14.00,2013-01-17 05:56:00,
2013-01-17 01:01:00,32.4,31.4,29.82,ENE,68,0.0,0.0,96,0.00,,---,0.00,VWS V14.00,2013-01-17 06:01:00,
2013-01-17 01:06:00,32.4,31.4,29.82,ENE,68,0.0,0.0,96,0.00,,---,0.00,VWS V14.00,2013-01-17 06:06:00,
2013-01-17 01:11:00,32.2,31.2,29.82,ENE,68,0.0,0.0,96,0.00,,---,0.00,VWS V14.00,2013-01-17 06:11:00,
2013-01-17 01:16:00,32.2,31.2,29.82,ENE,68,0.0,0.0,96,0.00,,---,0.00,VWS V14.00,2013-01-17 06:16:00,
2013-01-17 01:21:00,32.2,31.2,29.82,ENE,68,0.0,0.0,96,0.00,,---,0.00,VWS V14.00,2013-01-17 06:21:00,
2013-01-17 01:26:00,32.2,31.2,29.82,ENE,68,0.0,0.0,96,0.00,,---,0.00,VWS V14.00,2013-01-17 06:26:00,
2013-01-17 01:31:00,32.0,31.0,29.82,ENE,68,0.0,0.0,96,0.00,,---,0.00,VWS V14.00,2013-01-17 06:31:00,
2013-01-17 01:36:00,32.0,31.0,29.82,ENE,68,0.0,0.0,96,0.00,,---,0.00,VWS V14.00,2013-01-17 06:36:00,
2013-01-17 01:41:00,32.0,31.0,29.82,ENE,68,0.0,0.0,96,0.00,,---,0.00,VWS V14.00,2013-01-17 06:41:00,
2013-01-17 01:46:00,31.8,30.8,29.82,ENE,68,0.0,0.0,96,0.00,,---,0.00,VWS V14.00,2013-01-17 06:46:00,
2013-01-17 01:51:00,31.8,30.8,29.82,ENE,68,0.0,0.0,96,0.00,,---,0.00,VWS V14.00,2013-01-17 06:51:00,
2013-01-17 01:56:00,31.6,30.6,29.82,ENE,68,0.0,0.0,96,0.00,,---,0.00,VWS V14.00,2013-01-17 06:56:00,
2013-01-17 02:01:00,31.6,30.6,29.82,ENE,68,0.0,0.0,96,0.00,,---,0.00,VWS V14.00,2013-01-17 07:01:00,
2013-01-17 02:06:00,31.5,30.5,29.82,ENE,68,0.0,0.0,96,0.00,,---,0.00,VWS V14.00,2013-01-17 07:06:00,
2013-01-17 02:11:00,31.3,30.3,29.82,ENE,68,0.0,0.0,96,0.00,,---,0.00,VWS V14.00,2013-01-17 07:11:00,
2013-01-17 02:16:00,31.3,30.3,29.82,ENE,68,0.0,0.0,96,0.00,,---,0.00,VWS V14.00,2013-01-17 07:16:00,
2013-01-17 02:21:00,31.3,30.3,29.82,ENE,68,0.0,0.0,96,0.00,,---,0.00,VWS V14.00,2013-01-17 07:21:00,
2013-01-17 02:26:00,31.3,30.3,29.82,ENE,68,0.0,0.0,96,0.00,,---,0.00,VWS V14.00,2013-01-17 07:26:00,
2013-01-17 02:31:00,31.3,30.3,29.82,ENE,68,0.0,0.0,96,0.00,,---,0.00,VWS V14.00,2013-01-17 07:31:00,
2013-01-17 02:36:00,31.3,30.3,29.82,ENE,68,0.0,0.0,96,0.00,,---,0.00,VWS V14.00,2013-01-17 07:36:00,
2013-01-17 02:41:00,31.1,30.1,29.82,ENE,68,0.0,0.0,96,0.00,,---,0.00,VWS V14.00,2013-01-17 07:41:00,
2013-01-17 02:46:00,31.1,30.1,29.82,ENE,68,0.0,0.0,96,0.00,,---,0.00,VWS V14.00,2013-01-17 07:46:00,
2013-01-17 02:51:00,31.1,30.1,29.82,ENE,68,0.0,0.0,96,0.00,,---,0.00,VWS V14.00,2013-01-17 07:51:00,
2013-01-17 02:56:00,30.9,29.9,29.82,ENE,68,0.0,0.0,96,0.00,,---,0.00,VWS V14.00,2013-01-17 07:56:00,
2013-01-17 03:01:00,30.7,29.7,29.82,ENE,68,0.0,0.0,96,0.00,,---,0.00,VWS V14.00,2013-01-17 08:01:00,
2013-01-17 03:06:00,30.6,29.6,29.82,ENE,68,0.0,0.0,96,0.00,,---,0.00,VWS V14.00,2013-01-17 08:06:00,
2013-01-17 03:11:00,30.4,29.4,29.82,ENE,68,0.0,0.0,96,0.00,,---,0.00,VWS V14.00,2013-01-17 08:11:00,
2013-01-17 03:16:00,30.2,29.2,29.82,ENE,68,0.0,0.0,96,0.00,,---,0.00,VWS V14.00,2013-01-17 08:16:00,
2013-01-17 03:21:00,30.0,29.0,29.82,ENE,68,0.0,0.0,96,0.00,,---,0.00,VWS V14.00,2013-01-17 08:21:00,
2013-01-17 03:26:00,29.7,28.7,29.82,ENE,68,0.0,0.0,96,0.00,,---,0.00,VWS V14.00,2013-01-17 08:26:00,
2013-01-17 03:31:00,29.7,28.7,29.82,ENE,68,0.0,0.0,96,0.00,,---,0.00,VWS V14.00,2013-01-17 08:31:00,
2013-01-17 03:36:00,29.5,28.5,29.82,ENE,68,0.0,0.0,96,0.00,,---,0.00,VWS V14.00,2013-01-17 08:36:00,
2013-01-17 03:41:00,28.9,27.9,29.82,ENE,68,0.0,0.0,96,0.00,,---,0.00,VWS V14.00,2013-01-17 08:41:00,
2013-01-17 03:46:00,28.8,27.5,29.82,ENE,68,0.0,0.0,95,0.00,,---,0.00,VWS V14.00,2013-01-17 08:46:00,
2013-01-17 03:51:00,28.4,27.4,29.82,ENE,68,0.0,0.0,96,0.00,,---,0.00,VWS V14.00,2013-01-17 08:51:00,
2013-01-17 03:56:00,28.0,27.0,29.82,ENE,68,0.0,0.0,96,0.00,,---,0.00,VWS V14.00,2013-01-17 08:56:00,
2013-01-17 04:01:00,27.9,26.9,29.82,ENE,68,0.0,0.0,96,0.00,,---,0.00,VWS V14.00,2013-01-17 09:01:00,
2013-01-17 04:06:00,27.7,26.7,29.82,ENE,68,0.0,0.0,96,0.00,,---,0.00,VWS V14.00,2013-01-17 09:06:00,
2013-01-17 04:11:00,27.5,26.5,29.82,ENE,68,0.0,0.0,96,0.00,,---,0.00,VWS V14.00,2013-01-17 09:11:00,
2013-01-17 04:16:00,27.3,26.3,29.82,ENE,68,0.0,0.0,96,0.00,,---,0.00,VWS V14.00,2013-01-17 09:16:00,
2013-01-17 04:21:00,27.1,25.9,29.82,ENE,68,0.0,0.0,95,0.00,,---,0.00,VWS V14.00,2013-01-17 09:21:00,
2013-01-17 04:26:00,27.0,25.7,29.82,ENE,68,0.0,0.0,95,0.00,,---,0.00,VWS V14.00,2013-01-17 09:26:00,
2013-01-17 04:31:00,26.8,25.5,29.82,ENE,68,0.0,0.0,95,0.00,,---,0.00,VWS V14.00,2013-01-17 09:31:00,
2013-01-17 04:36:00,26.6,25.6,29.82,ENE,68,0.0,0.0,96,0.00,,---,0.00,VWS V14.00,2013-01-17 09:36:00,
2013-01-17 04:41:00,26.4,25.4,29.79,ENE,68,0.0,0.0,96,0.00,,---,0.00,VWS V14.00,2013-01-17 09:41:00,
2013-01-17 04:46:00,26.4,25.4,29.79,ENE,68,0.0,0.0,96,0.00,,---,0.00,VWS V14.00,2013-01-17 09:46:00,
2013-01-17 04:51:00,26.2,25.3,29.79,ENE,68,0.0,0.0,96,0.00,,---,0.00,VWS V14.00,2013-01-17 09:51:00,
2013-01-17 04:56:00,26.4,25.4,29.79,ENE,68,0.0,0.0,96,0.00,,---,0.00,VWS V14.00,2013-01-17 09:56:00,
2013-01-17 05:01:00,26.2,25.3,29.79,ENE,68,0.0,0.0,96,0.00,,---,0.00,VWS V14.00,2013-01-17 10:01:00,
2013-01-17 05:06:00,26.1,25.1,29.79,ENE,68,0.0,0.0,96,0.00,,---,0.00,VWS V14.00,2013-01-17 10:06:00,
2013-01-17 05:11:00,26.1,25.1,29.82,ENE,68,0.0,0.0,96,0.00,,---,0.00,VWS V14.00,2013-01-17 10:11:00,
2013-01-17 05:16:00,26.1,25.1,29.82,ENE,68,0.0,0.0,96,0.00,,---,0.00,VWS V14.00,2013-01-17 10:16:00,
2013-01-17 05:21:00,25.7,24.7,29.82,ENE,68,0.0,0.0,96,0.00,,---,0.00,VWS V14.00,2013-01-17 10:21:00,
2013-01-17 05:26:00,25.5,24.5,29.82,ENE,68,0.0,0.0,96,0.00,,---,0.00,VWS V14.00,2013-01-17 10:26:00,
2013-01-17 05:31:00,25.7,24.7,29.82,ENE,68,0.0,0.0,96,0.00,,---,0.00,VWS V14.00,2013-01-17 10:31:00,
2013-01-17 05:36:00,25.5,24.5,29.82,ENE,68,0.0,0.0,96,0.00,,---,0.00,VWS V14.00,2013-01-17 10:36:00,
2013-01-17 05:41:00,25.3,24.4,29.85,ENE,68,0.0,0.0,96,0.00,,---,0.00,VWS V14.00,2013-01-17 10:41:00,
2013-01-17 05:46:00,25.3,24.4,29.85,ENE,68,0.0,0.0,96,0.00,,---,0.00,VWS V14.00,2013-01-17 10:46:00,
2013-01-17 05:51:00,25.3,24.4,29.85,ENE,68,0.0,0.0,96,0.00,,---,0.00,VWS V14.00,2013-01-17 10:51:00,
2013-01-17 05:56:00,25.2,24.2,29.85,ENE,68,0.0,0.0,96,0.00,,---,0.00,VWS V14.00,2013-01-17 10:56:00,
2013-01-17 06:01:00,25.2,24.2,29.85,ENE,68,0.0,0.0,96,0.00,,---,0.00,VWS V14.00,2013-01-17 11:01:00,
2013-01-17 06:06:00,25.2,24.2,29.85,ENE,68,0.0,0.0,96,0.00,,---,0.00,VWS V14.00,2013-01-17 11:06:00,
2013-01-17 06:11:00,25.0,24.0,29.85,ENE,68,0.0,0.0,96,0.00,,---,0.00,VWS V14.00,2013-01-17 11:11:00,
2013-01-17 06:16:00,25.0,24.0,29.85,ENE,68,0.0,0.0,96,0.00,,---,0.00,VWS V14.00,2013-01-17 11:16:00,
2013-01-17 06:21:00,24.8,23.8,29.85,ENE,68,0.0,0.0,96,0.00,,---,0.00,VWS V14.00,2013-01-17 11:21:00,
2013-01-17 06:26:00,24.6,23.6,29.85,ENE,68,0.0,0.0,96,0.00,,---,0.00,VWS V14.00,2013-01-17 11:26:00,
2013-01-17 06:31:00,24.6,23.6,29.85,ENE,68,0.0,0.0,96,0.00,,---,0.00,VWS V14.00,2013-01-17 11:31:00,
2013-01-17 06:36:00,24.8,23.8,29.85,ENE,68,0.0,0.0,96,0.00,,---,0.00,VWS V14.00,2013-01-17 11:36:00,
2013-01-17 06:41:00,24.8,23.8,29.85,ENE,68,0.0,0.0,96,0.00,,---,0.00,VWS V14.00,2013-01-17 11:41:00,
2013-01-17 06:46:00,24.6,23.6,29.85,ENE,68,0.0,0.0,96,0.00,,---,0.00,VWS V14.00,2013-01-17 11:46:00,
2013-01-17 06:51:00,24.6,23.6,29.85,ENE,68,0.0,0.0,96,0.00,,---,0.00,VWS V14.00,2013-01-17 11:51:00,
2013-01-17 06:56:00,24.8,23.8,29.88,ENE,68,0.0,0.0,96,0.00,,---,0.00,VWS V14.00,2013-01-17 11:56:00,
2013-01-17 07:01:00,24.8,23.8,29.88,ENE,68,0.0,0.0,96,0.00,,---,0.00,VWS V14.00,2013-01-17 12:01:00,
2013-01-17 07:06:00,25.2,24.2,29.88,ENE,68,0.0,0.0,96,0.00,,---,0.00,VWS V14.00,2013-01-17 12:06:00,
2013-01-17 07:11:00,25.2,24.2,29.88,ENE,68,0.0,0.0,96,0.00,,---,0.00,VWS V14.00,2013-01-17 12:11:00,
2013-01-17 07:16:00,25.2,24.2,29.88,ENE,68,0.0,0.0,96,0.00,,---,0.00,VWS V14.00,2013-01-17 12:16:00,
2013-01-17 07:21:00,25.2,24.2,29.88,ENE,68,0.0,0.0,96,0.00,,---,0.00,VWS V14.00,2013-01-17 12:21:00,
2013-01-17 07:26:00,25.5,24.5,29.88,ENE,68,0.0,0.0,96,0.00,,---,0.00,VWS V14.00,2013-01-17 12:26:00,
2013-01-17 07:31:00,26.1,25.1,29.88,ENE,68,0.0,0.0,96,0.00,,---,0.00,VWS V14.00,2013-01-17 12:31:00,
2013-01-17 07:36:00,26.8,25.8,29.88,ENE,68,0.0,0.0,96,0.00,,---,0.00,VWS V14.00,2013-01-17 12:36:00,
2013-01-17 07:41:00,27.7,26.7,29.88,ENE,68,0.0,0.0,96,0.00,,---,0.00,VWS V14.00,2013-01-17 12:41:00,
2013-01-17 07:46:00,28.6,27.8,29.88,ENE,68,0.0,0.0,97,0.00,,---,0.00,VWS V14.00,2013-01-17 12:46:00,
2013-01-17 07:51:00,29.3,28.6,29.88,ENE,68,0.0,0.0,97,0.00,,---,0.00,VWS V14.00,2013-01-17 12:51:00,
2013-01-17 07:56:00,30.0,29.0,29.91,ENE,68,0.0,0.0,96,0.00,,---,0.00,VWS V14.00,2013-01-17 12:56:00,
2013-01-17 08:01:00,30.6,29.6,29.91,ENE,68,0.0,0.0,96,0.00,,---,0.00,VWS V14.00,2013-01-17 13:01:00,
2013-01-17 08:06:00,31.1,29.8,29.91,ENE,68,0.0,0.0,95,0.00,,---,0.00,VWS V14.00,2013-01-17 13:06:00,
2013-01-17 08:11:00,31.1,29.3,29.91,ENE,68,0.0,0.0,93,0.00,,---,0.00,VWS V14.00,2013-01-17 13:11:00,
2013-01-17 08:16:00,31.8,29.8,29.91,ENE,68,0.0,0.0,92,0.00,,---,0.00,VWS V14.00,2013-01-17 13:16:00,
2013-01-17 08:21:00,32.0,29.7,29.91,ENE,68,0.0,0.0,91,0.00,,---,0.00,VWS V14.00,2013-01-17 13:21:00,
2013-01-17 08:26:00,32.4,29.8,29.91,ENE,68,0.0,0.0,90,0.00,,---,0.00,VWS V14.00,2013-01-17 13:26:00,
2013-01-17 08:31:00,32.7,29.6,29.91,ENE,68,0.0,0.0,88,0.00,,---,0.00,VWS V14.00,2013-01-17 13:31:00,
2013-01-17 08:36:00,32.7,29.3,29.91,ENE,68,0.0,0.0,87,0.00,,---,0.00,VWS V14.00,2013-01-17 13:36:00,
2013-01-17 08:41:00,32.9,29.5,29.91,ENE,68,0.0,0.0,87,0.00,,---,0.00,VWS V14.00,2013-01-17 13:41:00,
2013-01-17 08:46:00,33.1,29.4,29.91,ENE,68,0.0,0.0,86,0.00,,---,0.00,VWS V14.00,2013-01-17 13:46:00,
2013-01-17 08:51:00,33.1,29.4,29.91,ENE,68,0.0,0.0,86,0.00,,---,0.00,VWS V14.00,2013-01-17 13:51:00,
2013-01-17 08:56:00,33.3,29.0,29.94,ENE,68,0.0,0.0,84,0.00,,---,0.00,VWS V14.00,2013-01-17 13:56:00,
2013-01-17 09:01:00,33.6,29.3,29.94,ENE,68,0.0,0.0,84,0.00,,---,0.00,VWS V14.00,2013-01-17 14:01:00,
2013-01-17 09:06:00,34.3,29.7,29.94,ENE,68,0.0,0.0,83,0.00,,---,0.00,VWS V14.00,2013-01-17 14:06:00,
2013-01-17 09:11:00,35.1,30.4,29.94,ENE,68,0.0,0.0,83,0.00,,---,0.00,VWS V14.00,2013-01-17 14:11:00,
2013-01-17 09:16:00,35.6,29.4,29.94,ENE,68,0.0,0.0,78,0.00,,---,0.00,VWS V14.00,2013-01-17 14:16:00,
2013-01-17 09:21:00,35.8,29.6,29.94,ENE,68,0.0,0.0,78,0.00,,---,0.00,VWS V14.00,2013-01-17 14:21:00,
2013-01-17 09:26:00,35.8,29.0,29.94,ENE,68,0.0,0.0,76,0.00,,---,0.00,VWS V14.00,2013-01-17 14:26:00,
2013-01-17 09:31:00,35.4,29.2,29.94,ENE,68,0.0,0.0,78,0.00,,---,0.00,VWS V14.00,2013-01-17 14:31:00,
2013-01-17 09:36:00,35.2,28.8,29.94,ENE,68,0.0,0.0,77,0.00,,---,0.00,VWS V14.00,2013-01-17 14:36:00,
2013-01-17 09:41:00,35.1,28.9,29.94,ENE,68,0.0,0.0,78,0.00,,---,0.00,VWS V14.00,2013-01-17 14:41:00,
2013-01-17 09:46:00,36.3,30.4,29.94,ENE,68,0.0,0.0,79,0.00,,---,0.00,VWS V14.00,2013-01-17 14:46:00,
2013-01-17 09:51:00,37.0,30.8,29.94,ENE,68,0.0,0.0,78,0.00,,---,0.00,VWS V14.00,2013-01-17 14:51:00,
2013-01-17 09:56:00,37.8,30.9,29.97,ENE,68,0.0,0.0,76,0.00,,---,0.00,VWS V14.00,2013-01-17 14:56:00,
2013-01-17 10:01:00,37.4,29.5,29.97,ENE,68,0.0,0.0,73,0.00,,---,0.00,VWS V14.00,2013-01-17 15:01:00,
2013-01-17 10:06:00,39.7,32.5,29.97,ENE,68,0.0,0.0,75,0.00,,---,0.00,VWS V14.00,2013-01-17 15:06:00,
2013-01-17 10:11:00,41.0,32.7,29.97,ENE,68,0.0,0.0,72,0.00,,---,0.00,VWS V14.00,2013-01-17 15:11:00,
2013-01-17 10:16:00,42.3,33.2,29.97,ENE,68,0.0,0.0,70,0.00,,---,0.00,VWS V14.00,2013-01-17 15:16:00,
2013-01-17 10:21:00,42.8,31.9,29.97,ENE,68,0.0,0.0,65,0.00,,---,0.00,VWS V14.00,2013-01-17 15:21:00,
2013-01-17 10:26:00,42.6,31.7,29.97,ENE,68,0.0,0.0,65,0.00,,---,0.00,VWS V14.00,2013-01-17 15:26:00,
2013-01-17 10:31:00,41.4,28.9,29.97,ENE,68,0.0,0.0,61,0.00,,---,0.00,VWS V14.00,2013-01-17 15:31:00,
2013-01-17 10:36:00,42.1,30.8,29.97,ENE,68,0.0,0.0,64,0.00,,---,0.00,VWS V14.00,2013-01-17 15:36:00,
2013-01-17 10:41:00,43.7,33.1,29.97,ENE,68,0.0,0.0,66,0.00,,---,0.00,VWS V14.00,2013-01-17 15:41:00,
2013-01-17 10:46:00,44.2,32.8,29.97,ENE,68,0.0,0.0,64,0.00,,---,0.00,VWS V14.00,2013-01-17 15:46:00,
2013-01-17 10:51:00,43.3,30.4,29.97,ENE,68,0.0,0.0,60,0.00,,---,0.00,VWS V14.00,2013-01-17 15:51:00,
2013-01-17 10:56:00,43.7,30.7,29.97,ENE,68,0.0,0.0,60,0.00,,---,0.00,VWS V14.00,2013-01-17 15:56:00,
2013-01-17 11:01:00,45.0,31.5,29.97,ENE,68,0.0,0.0,59,0.00,,---,0.00,VWS V14.00,2013-01-17 16:01:00,
2013-01-17 11:06:00,43.9,28.8,29.97,ENE,68,0.0,0.0,55,0.00,,---,0.00,VWS V14.00,2013-01-17 16:06:00,
2013-01-17 11:11:00,43.5,28.9,29.94,ENE,68,0.0,0.0,56,0.00,,---,0.00,VWS V14.00,2013-01-17 16:11:00,
2013-01-17 11:16:00,44.8,30.1,29.94,ENE,68,0.0,0.0,56,0.00,,---,0.00,VWS V14.00,2013-01-17 16:16:00,
2013-01-17 11:21:00,44.8,29.6,29.94,ENE,68,0.0,0.0,55,0.00,,---,0.00,VWS V14.00,2013-01-17 16:21:00,
2013-01-17 11:26:00,45.0,29.8,29.97,ENE,68,0.0,0.0,55,0.00,,---,0.00,VWS V14.00,2013-01-17 16:26:00,
2013-01-17 11:31:00,44.6,29.0,29.97,ENE,68,0.0,0.0,54,0.00,,---,0.00,VWS V14.00,2013-01-17 16:31:00,
2013-01-17 11:36:00,44.2,28.2,29.97,ENE,68,0.0,0.0,53,0.00,,---,0.00,VWS V14.00,2013-01-17 16:36:00,
2013-01-17 11:41:00,44.4,28.8,29.97,ENE,68,0.0,0.0,54,0.00,,---,0.00,VWS V14.00,2013-01-17 16:41:00,
2013-01-17 11:46:00,45.1,29.5,29.97,ENE,68,0.0,0.0,54,0.00,,---,0.00,VWS V14.00,2013-01-17 16:46:00,
2013-01-17 11:51:00,43.9,28.3,29.97,ENE,68,0.0,0.0,54,0.00,,---,0.00,VWS V14.00,2013-01-17 16:51:00,
2013-01-17 11:56:00,44.6,29.5,29.94,ENE,68,0.0,0.0,55,0.00,,---,0.00,VWS V14.00,2013-01-17 16:56:00,
2013-01-17 12:01:00,43.9,28.8,29.94,ENE,68,0.0,0.0,55,0.00,,---,0.00,VWS V14.00,2013-01-17 17:01:00,
2013-01-17 12:06:00,41.9,26.9,29.94,ENE,68,0.0,0.0,55,0.00,,---,0.00,VWS V14.00,2013-01-17 17:06:00,
2013-01-17 12:11:00,42.8,28.2,29.97,ENE,68,0.0,0.0,56,0.00,,---,0.00,VWS V14.00,2013-01-17 17:11:00,
2013-01-17 12:16:00,42.3,27.7,29.97,ENE,68,0.0,0.0,56,0.04,,---,0.04,VWS V14.00,2013-01-17 17:16:00,
2013-01-17 12:21:00,42.3,27.3,29.97,ENE,68,0.0,0.0,55,0.04,,---,0.04,VWS V14.00,2013-01-17 17:21:00,
2013-01-17 12:26:00,41.5,27.0,29.94,ENE,68,0.0,0.0,56,0.04,,---,0.04,VWS V14.00,2013-01-17 17:26:00,
2013-01-17 12:31:00,41.4,26.9,29.94,ENE,68,0.0,0.0,56,0.04,,---,0.04,VWS V14.00,2013-01-17 17:31:00,
2013-01-17 12:36:00,41.7,27.6,29.94,ENE,68,0.0,0.0,57,0.04,,---,0.04,VWS V14.00,2013-01-17 17:36:00,
2013-01-17 12:41:00,42.6,28.5,29.94,ENE,68,0.0,0.0,57,0.04,,---,0.04,VWS V14.00,2013-01-17 17:41:00,
2013-01-17 12:46:00,42.4,28.3,29.94,ENE,68,0.0,0.0,57,0.04,,---,0.04,VWS V14.00,2013-01-17 17:46:00,
2013-01-17 12:51:00,42.3,28.1,29.94,ENE,68,0.0,0.0,57,0.04,,---,0.04,VWS V14.00,2013-01-17 17:51:00,
2013-01-17 12:56:00,41.7,27.2,29.94,ENE,68,0.0,0.0,56,0.04,,---,0.04,VWS V14.00,2013-01-17 17:56:00,
2013-01-17 13:01:00,41.2,26.2,29.94,ENE,68,0.0,0.0,55,0.04,,---,0.04,VWS V14.00,2013-01-17 18:01:00,
2013-01-17 13:06:00,41.2,26.2,29.94,ENE,68,0.0,0.0,55,0.04,,---,0.04,VWS V14.00,2013-01-17 18:06:00,
2013-01-17 13:11:00,40.8,25.5,29.94,ENE,68,0.0,0.0,54,0.00,,---,0.04,VWS V14.00,2013-01-17 18:11:00,
2013-01-17 13:16:00,40.6,25.3,29.94,ENE,68,0.0,0.0,54,0.00,,---,0.04,VWS V14.00,2013-01-17 18:16:00,
2013-01-17 13:21:00,40.3,25.0,29.94,ENE,68,0.0,0.0,54,0.00,,---,0.04,VWS V14.00,2013-01-17 18:21:00,
2013-01-17 13:26:00,39.6,24.3,29.94,ENE,68,0.0,0.0,54,0.00,,---,0.04,VWS V14.00,2013-01-17 18:26:00,
2013-01-17 13:31:00,39.0,24.2,29.94,ENE,68,0.0,0.0,55,0.04,,---,0.09,VWS V14.00,2013-01-17 18:31:00,
2013-01-17 13:36:00,38.7,23.9,29.94,ENE,68,0.0,0.0,55,0.04,,---,0.09,VWS V14.00,2013-01-17 18:36:00,
2013-01-17 13:41:00,38.8,23.6,29.94,ENE,68,0.0,0.0,54,0.04,,---,0.09,VWS V14.00,2013-01-17 18:41:00,
2013-01-17 13:46:00,38.8,24.1,29.94,ENE,68,0.0,0.0,55,0.04,,---,0.09,VWS V14.00,2013-01-17 18:46:00,
2013-01-17 13:51:00,39.2,24.0,29.94,ENE,68,0.0,0.0,54,0.04,,---,0.09,VWS V14.00,2013-01-17 18:51:00,
2013-01-17 13:56:00,39.2,23.5,29.94,ENE,68,0.0,0.0,53,0.04,,---,0.09,VWS V14.00,2013-01-17 18:56:00,
2013-01-17 14:01:00,39.2,23.1,29.94,ENE,68,0.0,0.0,52,0.04,,---,0.09,VWS V14.00,2013-01-17 19:01:00,
2013-01-17 14:06:00,39.2,23.1,29.94,ENE,68,0.0,0.0,52,0.04,,---,0.09,VWS V14.00,2013-01-17 19:06:00,
2013-01-17 14:11:00,39.6,22.9,29.97,ENE,68,0.0,0.0,51,0.00,,---,0.09,VWS V14.00,2013-01-17 19:11:00,
2013-01-17 14:16:00,40.3,23.6,29.97,ENE,68,0.0,0.0,51,0.00,,---,0.09,VWS V14.00,2013-01-17 19:16:00,
2013-01-17 14:21:00,40.6,23.9,29.97,ENE,68,0.0,0.0,51,0.00,,---,0.09,VWS V14.00,2013-01-17 19:21:00,
2013-01-17 14:26:00,41.5,24.8,29.97,ENE,68,0.0,0.0,51,0.00,,---,0.09,VWS V14.00,2013-01-17 19:26:00,
2013-01-17 14:31:00,42.4,25.1,29.97,ENE,68,0.0,0.0,50,0.00,,---,0.09,VWS V14.00,2013-01-17 19:31:00,
2013-01-17 14:36:00,42.1,24.8,29.97,ENE,68,0.0,0.0,50,0.00,,---,0.09,VWS V14.00,2013-01-17 19:36:00,
2013-01-17 14:41:00,41.4,24.1,29.97,ENE,68,0.0,0.0,50,0.00,,---,0.09,VWS V14.00,2013-01-17 19:41:00,
2013-01-17 14:46:00,40.6,23.9,29.97,ENE,68,0.0,0.0,51,0.00,,---,0.09,VWS V14.00,2013-01-17 19:46:00,
2013-01-17 14:51:00,39.4,22.8,29.97,ENE,68,0.0,0.0,51,0.04,,---,0.13,VWS V14.00,2013-01-17 19:51:00,
2013-01-17 14:56:00,38.5,22.4,29.97,ENE,68,0.0,0.0,52,0.04,,---,0.13,VWS V14.00,2013-01-17 19:56:00,
2013-01-17 15:01:00,38.1,22.1,29.97,ENE,68,0.0,0.0,52,0.04,,---,0.13,VWS V14.00,2013-01-17 20:01:00,
2013-01-17 15:06:00,37.4,21.9,29.97,ENE,68,0.0,0.0,53,0.04,,---,0.13,VWS V14.00,2013-01-17 20:06:00,
2013-01-17 15:11:00,37.2,21.7,29.97,ENE,68,0.0,0.0,53,0.00,,---,0.13,VWS V14.00,2013-01-17 20:11:00,
2013-01-17 15:16:00,36.9,20.9,29.97,ENE,68,0.0,0.0,52,0.00,,---,0.13,VWS V14.00,2013-01-17 20:16:00,
2013-01-17 15:21:00,36.9,21.3,29.97,ENE,68,0.0,0.0,53,0.00,,---,0.13,VWS V14.00,2013-01-17 20:21:00,
2013-01-17 15:26:00,36.7,20.7,29.97,ENE,68,0.0,0.0,52,0.00,,---,0.13,VWS V14.00,2013-01-17 20:26:00,
2013-01-17 15:31:00,36.5,20.6,29.97,ENE,68,0.0,0.0,52,0.00,,---,0.13,VWS V14.00,2013-01-17 20:31:00,
2013-01-17 15:36:00,36.5,21.0,29.97,ENE,68,0.0,0.0,53,0.00,,---,0.13,VWS V14.00,2013-01-17 20:36:00,
2013-01-17 15:41:00,36.3,20.8,29.97,ENE,68,0.0,0.0,53,0.00,,---,0.13,VWS V14.00,2013-01-17 20:41:00,
2013-01-17 15:46:00,36.1,20.7,29.97,ENE,68,0.0,0.0,53,0.00,,---,0.13,VWS V14.00,2013-01-17 20:46:00,
2013-01-17 15:51:00,36.1,20.7,29.97,ENE,68,0.0,0.0,53,0.00,,---,0.13,VWS V14.00,2013-01-17 20:51:00,
2013-01-17 15:56:00,35.8,20.3,29.97,ENE,68,0.0,0.0,53,0.00,,---,0.13,VWS V14.00,2013-01-17 20:56:00,
2013-01-17 16:01:00,35.6,20.6,29.97,ENE,68,0.0,0.0,54,0.00,,---,0.13,VWS V14.00,2013-01-17 21:01:00,
2013-01-17 16:06:00,35.6,20.2,29.97,ENE,68,0.0,0.0,53,0.00,,---,0.13,VWS V14.00,2013-01-17 21:06:00,
2013-01-17 16:11:00,35.4,20.4,29.97,ENE,68,0.0,0.0,54,0.00,,---,0.13,VWS V14.00,2013-01-17 21:11:00,
2013-01-17 16:16:00,35.2,19.8,29.97,ENE,68,0.0,0.0,53,0.00,,---,0.13,VWS V14.00,2013-01-17 21:16:00,
2013-01-17 16:21:00,35.1,20.1,29.97,ENE,68,0.0,0.0,54,0.00,,---,0.13,VWS V14.00,2013-01-17 21:21:00,
2013-01-17 16:26:00,34.9,19.5,29.97,ENE,68,0.0,0.0,53,0.00,,---,0.13,VWS V14.00,2013-01-17 21:26:00,
2013-01-17 16:30:00,34.7,19.8,29.97,ENE,68,0.0,0.0,54,0.00,,---,0.13,VWS V14.00,2013-01-17 21:30:00,
2013-01-17 16:35:00,34.5,19.6,29.97,ENE,68,0.0,0.0,54,0.00,,---,0.13,VWS V14.00,2013-01-17 21:35:00,
2013-01-17 16:40:00,34.3,19.4,29.97,ENE,68,0.0,0.0,54,0.00,,---,0.13,VWS V14.00,2013-01-17 21:40:00,
2013-01-17 16:45:00,34.2,19.3,29.97,ENE,68,0.0,0.0,54,0.00,,---,0.13,VWS V14.00,2013-01-17 21:45:00,
2013-01-17 16:50:00,34.0,18.7,29.97,ENE,68,0.0,0.0,53,0.00,,---,0.13,VWS V14.00,2013-01-17 21:50:00,
2013-01-17 16:55:00,34.0,19.1,29.97,ENE,68,0.0,0.0,54,0.00,,---,0.13,VWS V14.00,2013-01-17 21:55:00,
2013-01-17 17:00:00,33.8,18.9,29.97,ENE,68,0.0,0.0,54,0.00,,---,0.13,VWS V14.00,2013-01-17 22:00:00,
2013-01-17 17:05:00,33.6,18.8,29.97,ENE,68,0.0,0.0,54,0.00,,---,0.13,VWS V14.00,2013-01-17 22:05:00,
2013-01-17 17:10:00,33.6,18.8,30.00,ENE,68,0.0,0.0,54,0.00,,---,0.13,VWS V14.00,2013-01-17 22:10:00,
2013-01-17 17:15:00,33.4,18.6,30.00,ENE,68,0.0,0.0,54,0.00,,---,0.13,VWS V14.00,2013-01-17 22:15:00,
2013-01-17 17:20:00,33.3,18.4,30.00,ENE,68,0.0,0.0,54,0.00,,---,0.13,VWS V14.00,2013-01-17 22:20:00,
2013-01-17 17:25:00,33.1,18.3,29.97,ENE,68,0.0,0.0,54,0.00,,---,0.13,VWS V14.00,2013-01-17 22:25:00,
2013-01-17 17:30:00,33.1,18.3,29.97,ENE,68,0.0,0.0,54,0.00,,---,0.13,VWS V14.00,2013-01-17 22:30:00,
2013-01-17 17:35:00,33.1,17.8,29.97,ENE,68,0.0,0.0,53,0.00,,---,0.13,VWS V14.00,2013-01-17 22:35:00,
2013-01-17 17:40:00,33.1,17.8,30.00,ENE,68,0.0,0.0,53,0.00,,---,0.13,VWS V14.00,2013-01-17 22:40:00,
2013-01-17 17:45:00,32.9,17.7,30.00,ENE,68,0.0,0.0,53,0.00,,---,0.13,VWS V14.00,2013-01-17 22:45:00,
2013-01-17 17:50:00,32.7,17.5,30.00,ENE,68,0.0,0.0,53,0.00,,---,0.13,VWS V14.00,2013-01-17 22:50:00,
2013-01-17 17:55:00,32.5,17.3,30.00,ENE,68,0.0,0.0,53,0.00,,---,0.13,VWS V14.00,2013-01-17 22:55:00,
2013-01-17 18:00:00,32.5,17.3,30.00,ENE,68,0.0,0.0,53,0.00,,---,0.13,VWS V14.00,2013-01-17 23:00:00,
2013-01-17 18:05:00,32.5,17.3,30.00,ENE,68,0.0,0.0,53,0.00,,---,0.13,VWS V14.00,2013-01-17 23:05:00,
2013-01-17 18:10:00,32.4,17.1,30.00,ENE,68,0.0,0.0,53,0.00,,---,0.13,VWS V14.00,2013-01-17 23:10:00,
2013-01-17 18:15:00,32.2,17.4,30.00,ENE,68,0.0,0.0,54,0.00,,---,0.13,VWS V14.00,2013-01-17 23:15:00,
2013-01-17 18:20:00,32.2,17.4,30.00,ENE,68,0.0,0.0,54,0.00,,---,0.13,VWS V14.00,2013-01-17 23:20:00,
2013-01-17 18:25:00,32.2,17.4,30.03,ENE,68,0.0,0.0,54,0.00,,---,0.13,VWS V14.00,2013-01-17 23:25:00,
2013-01-17 18:30:00,32.2,17.4,30.03,ENE,68,0.0,0.0,54,0.00,,---,0.13,VWS V14.00,2013-01-17 23:30:00,
2013-01-17 18:35:00,32.2,17.4,30.03,ENE,68,0.0,0.0,54,0.00,,---,0.13,VWS V14.00,2013-01-17 23:35:00,
2013-01-17 18:40:00,32.0,17.2,30.00,ENE,68,0.0,0.0,54,0.00,,---,0.13,VWS V14.00,2013-01-17 23:40:00,
2013-01-17 18:45:00,32.0,17.2,30.00,ENE,68,0.0,0.0,54,0.00,,---,0.13,VWS V14.00,2013-01-17 23:45:00,
2013-01-17 18:50:00,31.8,16.6,30.00,ENE,68,0.0,0.0,53,0.00,,---,0.13,VWS V14.00,2013-01-17 23:50:00,
2013-01-17 18:55:00,31.6,16.5,30.00,ENE,68,0.0,0.0,53,0.00,,---,0.13,VWS V14.00,2013-01-17 23:55:00,
2013-01-17 19:00:00,31.5,16.3,30.00,ENE,68,0.0,0.0,53,0.00,,---,0.13,VWS V14.00,2013-01-18 00:00:00,
2013-01-17 19:05:00,31.5,16.3,30.00,ENE,68,0.0,0.0,53,0.00,,---,0.13,VWS V14.00,2013-01-18 00:05:00,
2013-01-17 19:10:00,31.3,16.1,30.03,ENE,68,0.0,0.0,53,0.00,,---,0.13,VWS V14.00,2013-01-18 00:10:00,
2013-01-17 19:15:00,31.3,16.1,30.03,ENE,68,0.0,0.0,53,0.00,,---,0.13,VWS V14.00,2013-01-18 00:15:00,
2013-01-17 19:20:00,31.1,15.5,30.03,ENE,68,0.0,0.0,52,0.00,,---,0.13,VWS V14.00,2013-01-18 00:20:00,
2013-01-17 19:25:00,31.1,15.5,30.00,ENE,68,0.0,0.0,52,0.00,,---,0.13,VWS V14.00,2013-01-18 00:25:00,
2013-01-17 19:30:00,30.9,15.4,30.00,ENE,68,0.0,0.0,52,0.00,,---,0.13,VWS V14.00,2013-01-18 00:30:00,
2013-01-17 19:35:00,30.7,15.2,30.00,ENE,68,0.0,0.0,52,0.00,,---,0.13,VWS V14.00,2013-01-18 00:35:00,
2013-01-17 19:40:00,30.6,15.0,30.03,ENE,68,0.0,0.0,52,0.00,,---,0.13,VWS V14.00,2013-01-18 00:40:00,
2013-01-17 19:45:00,30.4,14.9,30.03,ENE,68,0.0,0.0,52,0.00,,---,0.13,VWS V14.00,2013-01-18 00:45:00,
2013-01-17 19:50:00,30.4,14.9,30.03,ENE,68,0.0,0.0,52,0.00,,---,0.13,VWS V14.00,2013-01-18 00:50:00,
2013-01-17 19:55:00,30.2,14.7,30.03,ENE,68,0.0,0.0,52,0.00,,---,0.13,VWS V14.00,2013-01-18 00:55:00,
2013-01-17 20:00:00,30.2,14.7,30.03,ENE,68,0.0,0.0,52,0.00,,---,0.13,VWS V14.00,2013-01-18 01:00:00,
2013-01-17 20:05:00,30.2,14.7,30.03,ENE,68,0.0,0.0,52,0.00,,---,0.13,VWS V14.00,2013-01-18 01:05:00,
2013-01-17 20:10:00,30.0,14.5,30.03,ENE,68,0.0,0.0,52,0.00,,---,0.13,VWS V14.00,2013-01-18 01:10:00,
2013-01-17 20:15:00,30.0,14.5,30.03,ENE,68,0.0,0.0,52,0.00,,---,0.13,VWS V14.00,2013-01-18 01:15:00,
2013-01-17 20:20:00,29.8,14.4,30.03,ENE,68,0.0,0.0,52,0.00,,---,0.13,VWS V14.00,2013-01-18 01:20:00,
2013-01-17 20:25:00,29.8,14.4,30.03,ENE,68,0.0,0.0,52,0.00,,---,0.13,VWS V14.00,2013-01-18 01:25:00,
2013-01-17 20:30:00,29.7,14.2,30.03,ENE,68,0.0,0.0,52,0.00,,---,0.13,VWS V14.00,2013-01-18 01:30:00,
2013-01-17 20:35:00,29.7,14.2,30.03,ENE,68,0.0,0.0,52,0.00,,---,0.13,VWS V14.00,2013-01-18 01:35:00,
2013-01-17 20:40:00,29.5,14.0,30.00,ENE,68,0.0,0.0,52,0.00,,---,0.13,VWS V14.00,2013-01-18 01:40:00,
2013-01-17 20:45:00,29.5,14.0,30.00,ENE,68,0.0,0.0,52,0.00,,---,0.13,VWS V14.00,2013-01-18 01:45:00,
2013-01-17 20:50:00,29.5,14.0,30.00,ENE,68,0.0,0.0,52,0.00,,---,0.13,VWS V14.00,2013-01-18 01:50:00,
2013-01-17 20:55:00,29.3,13.9,30.00,ENE,68,0.0,0.0,52,0.00,,---,0.13,VWS V14.00,2013-01-18 01:55:00,
2013-01-17 21:00:00,29.3,14.3,30.00,ENE,68,0.0,0.0,53,0.00,,---,0.13,VWS V14.00,2013-01-18 02:00:00,
2013-01-17 21:05:00,29.1,14.1,30.00,ENE,68,0.0,0.0,53,0.00,,---,0.13,VWS V14.00,2013-01-18 02:05:00,
2013-01-17 21:10:00,29.1,14.1,30.03,ENE,68,0.0,0.0,53,0.00,,---,0.13,VWS V14.00,2013-01-18 02:10:00,
2013-01-17 21:15:00,29.1,14.1,30.03,ENE,68,0.0,0.0,53,0.00,,---,0.13,VWS V14.00,2013-01-18 02:15:00,
2013-01-17 21:20:00,28.9,14.0,30.03,ENE,68,0.0,0.0,53,0.00,,---,0.13,VWS V14.00,2013-01-18 02:20:00,
2013-01-17 21:25:00,28.8,13.8,30.03,ENE,68,0.0,0.0,53,0.00,,---,0.13,VWS V14.00,2013-01-18 02:25:00,
2013-01-17 21:30:00,28.8,13.8,30.03,ENE,68,0.0,0.0,53,0.00,,---,0.13,VWS V14.00,2013-01-18 02:30:00,
2013-01-17 21:35:00,28.6,13.6,30.03,ENE,68,0.0,0.0,53,0.00,,---,0.13,VWS V14.00,2013-01-18 02:35:00,
2013-01-17 21:40:00,28.6,13.6,30.03,ENE,68,0.0,0.0,53,0.00,,---,0.13,VWS V14.00,2013-01-18 02:40:00,
2013-01-17 21:45:00,28.4,13.5,30.03,ENE,68,0.0,0.0,53,0.00,,---,0.13,VWS V14.00,2013-01-18 02:45:00,
2013-01-17 21:50:00,28.4,13.5,30.03,ENE,68,0.0,0.0,53,0.00,,---,0.13,VWS V14.00,2013-01-18 02:50:00,
2013-01-17 21:55:00,28.4,13.5,30.03,ENE,68,0.0,0.0,53,0.00,,---,0.13,VWS V14.00,2013-01-18 02:55:00,
2013-01-17 22:00:00,28.2,13.3,30.03,ENE,68,0.0,0.0,53,0.00,,---,0.13,VWS V14.00,2013-01-18 03:00:00,
2013-01-17 22:05:00,28.2,13.3,30.03,ENE,68,0.0,0.0,53,0.00,,---,0.13,VWS V14.00,2013-01-18 03:05:00,
2013-01-17 22:10:00,28.2,13.3,30.03,ENE,68,0.0,0.0,53,0.00,,---,0.13,VWS V14.00,2013-01-18 03:10:00,
2013-01-17 22:15:00,28.0,13.6,30.03,ENE,68,0.0,0.0,54,0.00,,---,0.13,VWS V14.00,2013-01-18 03:15:00,
2013-01-17 22:20:00,28.0,13.6,30.03,ENE,68,0.0,0.0,54,0.00,,---,0.13,VWS V14.00,2013-01-18 03:20:00,
2013-01-17 22:25:00,28.0,13.6,30.03,ENE,68,0.0,0.0,54,0.00,,---,0.13,VWS V14.00,2013-01-18 03:25:00,
2013-01-17 22:30:00,27.9,13.0,30.03,ENE,68,0.0,0.0,53,0.00,,---,0.13,VWS V14.00,2013-01-18 03:30:00,
2013-01-17 22:35:00,27.9,12.5,30.03,ENE,68,0.0,0.0,52,0.00,,---,0.13,VWS V14.00,2013-01-18 03:35:00,
2013-01-17 22:40:00,27.7,12.4,30.00,ENE,68,0.0,0.0,52,0.00,,---,0.13,VWS V14.00,2013-01-18 03:40:00,
2013-01-17 22:45:00,27.5,11.8,30.00,ENE,68,0.0,0.0,51,0.00,,---,0.13,VWS V14.00,2013-01-18 03:45:00,
2013-01-17 22:50:00,27.3,11.6,30.00,ENE,68,0.0,0.0,51,0.00,,---,0.13,VWS V14.00,2013-01-18 03:50:00,
2013-01-17 22:55:00,27.1,11.4,30.00,ENE,68,0.0,0.0,51,0.00,,---,0.13,VWS V14.00,2013-01-18 03:55:00,
2013-01-17 23:00:00,27.0,11.3,30.00,ENE,68,0.0,0.0,51,0.00,,---,0.13,VWS V14.00,2013-01-18 04:00:00,
2013-01-17 23:05:00,27.0,11.3,30.00,ENE,68,0.0,0.0,51,0.00,,---,0.13,VWS V14.00,2013-01-18 04:05:00,
2013-01-17 23:10:00,27.0,11.3,29.97,ENE,68,0.0,0.0,51,0.00,,---,0.13,VWS V14.00,2013-01-18 04:10:00,
2013-01-17 23:15:00,27.0,11.3,29.97,ENE,68,0.0,0.0,51,0.00,,---,0.13,VWS V14.00,2013-01-18 04:15:00,
2013-01-17 23:20:00,26.8,11.1,29.97,ENE,68,0.0,0.0,51,0.00,,---,0.13,VWS V14.00,2013-01-18 04:20:00,
2013-01-17 23:25:00,26.8,11.1,30.00,ENE,68,0.0,0.0,51,0.00,,---,0.13,VWS V14.00,2013-01-18 04:25:00,
2013-01-17 23:30:00,26.8,11.1,30.00,ENE,68,0.0,0.0,51,0.00,,---,0.13,VWS V14.00,2013-01-18 04:30:00,
2013-01-17 23:35:00,26.6,10.9,30.00,ENE,68,0.0,0.0,51,0.00,,---,0.13,VWS V14.00,2013-01-18 04:35:00,
2013-01-17 23:40:00,26.6,11.4,30.00,ENE,68,0.0,0.0,52,0.00,,---,0.13,VWS V14.00,2013-01-18 04:40:00,
2013-01-17 23:45:00,26.6,11.4,30.00,ENE,68,0.0,0.0,52,0.00,,---,0.13,VWS V14.00,2013-01-18 04:45:00,
2013-01-17 23:50:00,26.6,11.4,30.00,ENE,68,0.0,0.0,52,0.00,,---,0.13,VWS V14.00,2013-01-18 04:50:00,
2013-01-17 23:55:00,26.4,11.2,30.03,ENE,68,0.0,0.0,52,0.00,,---,0.13,VWS V14.00,2013-01-18 04:55:00,